sensor_id;sensor_type;location;lat;lon;timestamp;temperature;humidity
37642;DHT22;23486;51.956;5.888;2022-08-24T00:00:18;21.30;98.80
37642;DHT22;23486;51.956;5.888;2022-08-24T00:02:45;21.20;98.90
37642;DHT22;23486;51.956;5.888;2022-08-24T00:05:11;21.20;99.20
37642;DHT22;23486;51.956;5.888;2022-08-24T00:07:36;21.20;98.90
37642;DHT22;23486;51.956;5.888;2022-08-24T00:10:04;21.20;98.90
37642;DHT22;23486;51.956;5.888;2022-08-24T00:12:30;21.20;99.00
37642;DHT22;23486;51.956;5.888;2022-08-24T00:14:57;21.10;99.10
37642;DHT22;23486;51.956;5.888;2022-08-24T00:17:22;21.00;99.20
37642;DHT22;23486;51.956;5.888;2022-08-24T00:19:49;21.00;99.40
37642;DHT22;23486;51.956;5.888;2022-08-24T00:22:15;21.00;99.40
37642;DHT22;23486;51.956;5.888;2022-08-24T00:24:41;21.00;99.50
37642;DHT22;23486;51.956;5.888;2022-08-24T00:27:07;20.90;99.60
37642;DHT22;23486;51.956;5.888;2022-08-24T00:29:33;20.90;99.80
37642;DHT22;23486;51.956;5.888;2022-08-24T00:31:59;20.90;99.90
37642;DHT22;23486;51.956;5.888;2022-08-24T00:34:27;20.80;99.90
37642;DHT22;23486;51.956;5.888;2022-08-24T00:36:54;20.80;99.90
37642;DHT22;23486;51.956;5.888;2022-08-24T00:39:20;20.70;99.90
37642;DHT22;23486;51.956;5.888;2022-08-24T00:41:48;20.60;99.90
37642;DHT22;23486;51.956;5.888;2022-08-24T00:44:14;20.60;99.90
37642;DHT22;23486;51.956;5.888;2022-08-24T00:46:54;20.60;99.90
37642;DHT22;23486;51.956;5.888;2022-08-24T00:49:44;20.60;99.90
37642;DHT22;23486;51.956;5.888;2022-08-24T00:52:16;20.60;99.90
37642;DHT22;23486;51.956;5.888;2022-08-24T00:54:47;20.50;99.90
37642;DHT22;23486;51.956;5.888;2022-08-24T00:57:19;20.50;99.90
37642;DHT22;23486;51.956;5.888;2022-08-24T00:59:51;20.50;99.90
37642;DHT22;23486;51.956;5.888;2022-08-24T01:02:22;20.50;99.90
37642;DHT22;23486;51.956;5.888;2022-08-24T01:04:53;20.50;99.90
37642;DHT22;23486;51.956;5.888;2022-08-24T01:07:23;20.50;99.90
37642;DHT22;23486;51.956;5.888;2022-08-24T01:09:51;20.40;99.90
37642;DHT22;23486;51.956;5.888;2022-08-24T01:12:18;20.40;99.90
37642;DHT22;23486;51.956;5.888;2022-08-24T01:14:44;20.30;99.90
37642;DHT22;23486;51.956;5.888;2022-08-24T01:17:10;20.30;99.90
37642;DHT22;23486;51.956;5.888;2022-08-24T01:19:56;20.30;99.90
37642;DHT22;23486;51.956;5.888;2022-08-24T01:22:44;20.30;99.90
37642;DHT22;23486;51.956;5.888;2022-08-24T01:25:15;20.30;99.90
37642;DHT22;23486;51.956;5.888;2022-08-24T01:27:42;20.30;99.90
37642;DHT22;23486;51.956;5.888;2022-08-24T01:30:11;20.20;99.90
37642;DHT22;23486;51.956;5.888;2022-08-24T01:32:38;20.20;99.90
37642;DHT22;23486;51.956;5.888;2022-08-24T01:35:10;20.20;99.90
37642;DHT22;23486;51.956;5.888;2022-08-24T01:37:39;20.10;99.90
37642;DHT22;23486;51.956;5.888;2022-08-24T01:40:05;20.10;99.90
37642;DHT22;23486;51.956;5.888;2022-08-24T01:42:31;20.10;99.90
37642;DHT22;23486;51.956;5.888;2022-08-24T01:44:59;20.00;99.90
37642;DHT22;23486;51.956;5.888;2022-08-24T01:47:24;20.10;99.90
37642;DHT22;23486;51.956;5.888;2022-08-24T01:49:50;20.10;99.90
37642;DHT22;23486;51.956;5.888;2022-08-24T01:52:19;20.10;99.90
37642;DHT22;23486;51.956;5.888;2022-08-24T01:54:46;20.00;99.90
37642;DHT22;23486;51.956;5.888;2022-08-24T01:57:12;19.90;99.90
37642;DHT22;23486;51.956;5.888;2022-08-24T01:59:38;19.90;99.90
37642;DHT22;23486;51.956;5.888;2022-08-24T02:02:13;19.90;99.90
37642;DHT22;23486;51.956;5.888;2022-08-24T02:04:40;19.80;99.90
37642;DHT22;23486;51.956;5.888;2022-08-24T02:07:06;19.80;99.90
37642;DHT22;23486;51.956;5.888;2022-08-24T02:09:33;19.80;99.90
37642;DHT22;23486;51.956;5.888;2022-08-24T02:11:59;19.80;99.90
37642;DHT22;23486;51.956;5.888;2022-08-24T02:14:25;19.80;99.90
37642;DHT22;23486;51.956;5.888;2022-08-24T02:16:50;19.80;99.90
37642;DHT22;23486;51.956;5.888;2022-08-24T02:19:16;19.80;99.90
37642;DHT22;23486;51.956;5.888;2022-08-24T02:21:41;19.70;99.90
37642;DHT22;23486;51.956;5.888;2022-08-24T02:24:07;19.60;99.90
37642;DHT22;23486;51.956;5.888;2022-08-24T02:26:33;19.60;99.90
37642;DHT22;23486;51.956;5.888;2022-08-24T02:28:59;19.60;99.90
37642;DHT22;23486;51.956;5.888;2022-08-24T02:31:24;19.60;99.90
37642;DHT22;23486;51.956;5.888;2022-08-24T02:33:50;19.60;99.90
37642;DHT22;23486;51.956;5.888;2022-08-24T02:36:15;19.50;99.90
37642;DHT22;23486;51.956;5.888;2022-08-24T02:38:41;19.50;99.90
37642;DHT22;23486;51.956;5.888;2022-08-24T02:41:06;19.50;99.90
37642;DHT22;23486;51.956;5.888;2022-08-24T02:43:34;19.50;99.90
37642;DHT22;23486;51.956;5.888;2022-08-24T02:45:59;19.50;99.90
37642;DHT22;23486;51.956;5.888;2022-08-24T02:48:25;19.50;99.90
37642;DHT22;23486;51.956;5.888;2022-08-24T02:50:52;19.50;99.90
37642;DHT22;23486;51.956;5.888;2022-08-24T02:53:19;19.40;99.90
37642;DHT22;23486;51.956;5.888;2022-08-24T02:55:45;19.50;99.90
37642;DHT22;23486;51.956;5.888;2022-08-24T02:58:12;19.40;99.90
37642;DHT22;23486;51.956;5.888;2022-08-24T03:00:39;19.50;99.90
37642;DHT22;23486;51.956;5.888;2022-08-24T03:03:06;19.40;99.90
37642;DHT22;23486;51.956;5.888;2022-08-24T03:05:33;19.40;99.90
37642;DHT22;23486;51.956;5.888;2022-08-24T03:07:58;19.40;99.90
37642;DHT22;23486;51.956;5.888;2022-08-24T03:10:27;19.40;99.90
37642;DHT22;23486;51.956;5.888;2022-08-24T03:12:53;19.30;99.90
37642;DHT22;23486;51.956;5.888;2022-08-24T03:15:19;19.30;99.90
37642;DHT22;23486;51.956;5.888;2022-08-24T03:17:49;19.30;99.90
37642;DHT22;23486;51.956;5.888;2022-08-24T03:20:18;19.30;99.90
37642;DHT22;23486;51.956;5.888;2022-08-24T03:22:44;19.30;99.90
37642;DHT22;23486;51.956;5.888;2022-08-24T03:25:11;19.30;99.90
37642;DHT22;23486;51.956;5.888;2022-08-24T03:27:37;19.30;99.90
37642;DHT22;23486;51.956;5.888;2022-08-24T03:30:04;19.20;99.90
37642;DHT22;23486;51.956;5.888;2022-08-24T03:32:33;19.20;99.90
37642;DHT22;23486;51.956;5.888;2022-08-24T03:34:59;19.20;99.90
37642;DHT22;23486;51.956;5.888;2022-08-24T03:37:25;19.20;99.90
37642;DHT22;23486;51.956;5.888;2022-08-24T03:39:52;19.20;99.90
37642;DHT22;23486;51.956;5.888;2022-08-24T03:42:18;19.20;99.90
37642;DHT22;23486;51.956;5.888;2022-08-24T03:44:43;19.20;99.90
37642;DHT22;23486;51.956;5.888;2022-08-24T03:47:09;19.10;99.90
37642;DHT22;23486;51.956;5.888;2022-08-24T03:49:38;19.10;99.90
37642;DHT22;23486;51.956;5.888;2022-08-24T03:52:05;19.00;99.90
37642;DHT22;23486;51.956;5.888;2022-08-24T03:54:31;19.10;99.90
37642;DHT22;23486;51.956;5.888;2022-08-24T03:56:57;19.00;99.90
37642;DHT22;23486;51.956;5.888;2022-08-24T03:59:24;19.00;99.90
37642;DHT22;23486;51.956;5.888;2022-08-24T04:01:50;19.00;99.90
37642;DHT22;23486;51.956;5.888;2022-08-24T04:04:16;19.10;99.90
37642;DHT22;23486;51.956;5.888;2022-08-24T04:06:41;19.00;99.90
37642;DHT22;23486;51.956;5.888;2022-08-24T04:09:09;19.00;99.90
37642;DHT22;23486;51.956;5.888;2022-08-24T04:11:35;19.00;99.90
37642;DHT22;23486;51.956;5.888;2022-08-24T04:14:00;19.00;99.90
37642;DHT22;23486;51.956;5.888;2022-08-24T04:16:27;18.90;99.90
37642;DHT22;23486;51.956;5.888;2022-08-24T04:18:55;18.90;99.90
37642;DHT22;23486;51.956;5.888;2022-08-24T04:21:27;18.90;99.90
37642;DHT22;23486;51.956;5.888;2022-08-24T04:23:54;18.90;99.90
37642;DHT22;23486;51.956;5.888;2022-08-24T04:26:21;18.80;99.90
37642;DHT22;23486;51.956;5.888;2022-08-24T04:28:51;18.80;99.90
37642;DHT22;23486;51.956;5.888;2022-08-24T04:31:17;18.80;99.90
37642;DHT22;23486;51.956;5.888;2022-08-24T04:33:44;18.80;99.90
37642;DHT22;23486;51.956;5.888;2022-08-24T04:36:12;18.80;99.90
37642;DHT22;23486;51.956;5.888;2022-08-24T04:38:37;18.80;99.90
37642;DHT22;23486;51.956;5.888;2022-08-24T04:41:06;18.80;99.90
37642;DHT22;23486;51.956;5.888;2022-08-24T04:43:32;18.70;99.90
37642;DHT22;23486;51.956;5.888;2022-08-24T04:45:59;18.70;99.90
37642;DHT22;23486;51.956;5.888;2022-08-24T04:48:25;18.70;99.90
37642;DHT22;23486;51.956;5.888;2022-08-24T04:50:50;18.70;99.90
37642;DHT22;23486;51.956;5.888;2022-08-24T04:53:17;18.70;99.90
37642;DHT22;23486;51.956;5.888;2022-08-24T04:55:46;18.70;99.90
37642;DHT22;23486;51.956;5.888;2022-08-24T04:58:15;18.80;99.90
37642;DHT22;23486;51.956;5.888;2022-08-24T05:00:42;18.80;99.90
37642;DHT22;23486;51.956;5.888;2022-08-24T05:03:08;18.70;99.90
37642;DHT22;23486;51.956;5.888;2022-08-24T05:05:42;18.70;99.90
37642;DHT22;23486;51.956;5.888;2022-08-24T05:08:08;18.70;99.90
37642;DHT22;23486;51.956;5.888;2022-08-24T05:10:40;18.80;99.90
37642;DHT22;23486;51.956;5.888;2022-08-24T05:13:09;18.80;99.90
37642;DHT22;23486;51.956;5.888;2022-08-24T05:15:43;18.90;99.90
37642;DHT22;23486;51.956;5.888;2022-08-24T05:18:09;18.90;99.90
37642;DHT22;23486;51.956;5.888;2022-08-24T05:20:39;18.90;99.90
37642;DHT22;23486;51.956;5.888;2022-08-24T05:23:05;18.80;99.90
37642;DHT22;23486;51.956;5.888;2022-08-24T05:25:30;18.90;99.90
37642;DHT22;23486;51.956;5.888;2022-08-24T05:27:56;18.90;99.90
37642;DHT22;23486;51.956;5.888;2022-08-24T05:30:22;19.00;99.90
37642;DHT22;23486;51.956;5.888;2022-08-24T05:32:48;19.00;99.90
37642;DHT22;23486;51.956;5.888;2022-08-24T05:35:13;19.00;99.90
37642;DHT22;23486;51.956;5.888;2022-08-24T05:37:42;19.10;99.90
37642;DHT22;23486;51.956;5.888;2022-08-24T05:40:10;19.10;99.90
37642;DHT22;23486;51.956;5.888;2022-08-24T05:42:38;19.10;99.90
37642;DHT22;23486;51.956;5.888;2022-08-24T05:45:04;19.20;99.90
37642;DHT22;23486;51.956;5.888;2022-08-24T05:47:31;19.20;99.90
37642;DHT22;23486;51.956;5.888;2022-08-24T05:49:59;19.30;99.90
37642;DHT22;23486;51.956;5.888;2022-08-24T05:52:25;19.30;99.90
37642;DHT22;23486;51.956;5.888;2022-08-24T05:54:53;19.40;99.90
37642;DHT22;23486;51.956;5.888;2022-08-24T05:57:19;19.50;99.90
37642;DHT22;23486;51.956;5.888;2022-08-24T05:59:45;19.60;99.90
37642;DHT22;23486;51.956;5.888;2022-08-24T06:02:11;19.60;99.90
37642;DHT22;23486;51.956;5.888;2022-08-24T06:04:37;19.80;99.90
37642;DHT22;23486;51.956;5.888;2022-08-24T06:07:03;19.80;99.90
37642;DHT22;23486;51.956;5.888;2022-08-24T06:09:29;19.80;99.90
37642;DHT22;23486;51.956;5.888;2022-08-24T06:11:55;19.90;99.90
37642;DHT22;23486;51.956;5.888;2022-08-24T06:14:21;20.00;99.90
37642;DHT22;23486;51.956;5.888;2022-08-24T06:16:47;20.00;99.90
37642;DHT22;23486;51.956;5.888;2022-08-24T06:19:15;20.10;99.90
37642;DHT22;23486;51.956;5.888;2022-08-24T06:21:42;20.20;99.90
37642;DHT22;23486;51.956;5.888;2022-08-24T06:24:08;20.20;99.90
37642;DHT22;23486;51.956;5.888;2022-08-24T06:26:34;20.30;99.90
37642;DHT22;23486;51.956;5.888;2022-08-24T06:29:19;20.40;99.90
37642;DHT22;23486;51.956;5.888;2022-08-24T06:31:47;20.40;99.90
37642;DHT22;23486;51.956;5.888;2022-08-24T06:34:15;20.50;99.90
37642;DHT22;23486;51.956;5.888;2022-08-24T06:36:41;20.50;99.90
37642;DHT22;23486;51.956;5.888;2022-08-24T06:39:07;20.60;99.90
37642;DHT22;23486;51.956;5.888;2022-08-24T06:41:34;20.70;99.90
37642;DHT22;23486;51.956;5.888;2022-08-24T06:44:02;20.70;99.90
37642;DHT22;23486;51.956;5.888;2022-08-24T06:46:28;20.80;99.90
37642;DHT22;23486;51.956;5.888;2022-08-24T06:48:54;20.90;99.90
37642;DHT22;23486;51.956;5.888;2022-08-24T06:51:24;20.90;99.90
37642;DHT22;23486;51.956;5.888;2022-08-24T06:53:50;21.00;99.90
37642;DHT22;23486;51.956;5.888;2022-08-24T06:56:17;21.00;99.90
37642;DHT22;23486;51.956;5.888;2022-08-24T06:58:43;21.00;99.90
37642;DHT22;23486;51.956;5.888;2022-08-24T07:01:12;21.10;99.90
37642;DHT22;23486;51.956;5.888;2022-08-24T07:03:38;21.10;99.90
37642;DHT22;23486;51.956;5.888;2022-08-24T07:06:05;21.20;99.90
37642;DHT22;23486;51.956;5.888;2022-08-24T07:08:31;21.30;99.90
37642;DHT22;23486;51.956;5.888;2022-08-24T07:10:57;21.30;99.90
37642;DHT22;23486;51.956;5.888;2022-08-24T07:13:23;21.40;99.90
37642;DHT22;23486;51.956;5.888;2022-08-24T07:15:50;21.40;99.90
37642;DHT22;23486;51.956;5.888;2022-08-24T07:18:18;21.40;99.90
37642;DHT22;23486;51.956;5.888;2022-08-24T07:20:44;21.50;99.90
37642;DHT22;23486;51.956;5.888;2022-08-24T07:23:10;21.60;99.90
37642;DHT22;23486;51.956;5.888;2022-08-24T07:25:40;21.60;99.90
37642;DHT22;23486;51.956;5.888;2022-08-24T07:28:06;21.80;99.90
37642;DHT22;23486;51.956;5.888;2022-08-24T07:30:31;21.80;99.90
37642;DHT22;23486;51.956;5.888;2022-08-24T07:32:57;21.80;99.90
37642;DHT22;23486;51.956;5.888;2022-08-24T07:35:27;21.90;99.90
37642;DHT22;23486;51.956;5.888;2022-08-24T07:37:54;21.90;99.90
37642;DHT22;23486;51.956;5.888;2022-08-24T07:40:21;21.90;99.90
37642;DHT22;23486;51.956;5.888;2022-08-24T07:42:48;22.00;99.90
37642;DHT22;23486;51.956;5.888;2022-08-24T07:45:14;22.10;99.90
37642;DHT22;23486;51.956;5.888;2022-08-24T07:47:40;22.20;99.90
37642;DHT22;23486;51.956;5.888;2022-08-24T07:50:07;22.30;99.90
37642;DHT22;23486;51.956;5.888;2022-08-24T07:52:32;22.30;99.90
37642;DHT22;23486;51.956;5.888;2022-08-24T07:54:58;22.40;99.90
37642;DHT22;23486;51.956;5.888;2022-08-24T07:57:24;22.40;99.90
37642;DHT22;23486;51.956;5.888;2022-08-24T13:48:14;32.00;67.80
37642;DHT22;23486;51.956;5.888;2022-08-24T13:51:09;32.40;65.90
37642;DHT22;23486;51.956;5.888;2022-08-24T14:04:53;32.40;64.70
37642;DHT22;23486;51.956;5.888;2022-08-24T14:07:26;32.40;65.00
37642;DHT22;23486;51.956;5.888;2022-08-24T14:35:45;34.10;59.90
37642;DHT22;23486;51.956;5.888;2022-08-24T14:38:45;34.10;58.90
37642;DHT22;23486;51.956;5.888;2022-08-24T14:44:14;34.00;59.40
37642;DHT22;23486;51.956;5.888;2022-08-24T14:46:49;34.20;59.40
37642;DHT22;23486;51.956;5.888;2022-08-24T14:49:36;34.40;59.80
37642;DHT22;23486;51.956;5.888;2022-08-24T15:06:38;33.90;58.60
37642;DHT22;23486;51.956;5.888;2022-08-24T15:11:46;34.00;58.20
37642;DHT22;23486;51.956;5.888;2022-08-24T15:14:50;34.00;58.40
37642;DHT22;23486;51.956;5.888;2022-08-24T15:17:24;34.20;57.60
37642;DHT22;23486;51.956;5.888;2022-08-24T15:19:57;34.30;58.20
37642;DHT22;23486;51.956;5.888;2022-08-24T15:22:36;34.30;58.40
37642;DHT22;23486;51.956;5.888;2022-08-24T15:27:53;34.50;57.80
37642;DHT22;23486;51.956;5.888;2022-08-24T15:30:32;34.60;57.70
37642;DHT22;23486;51.956;5.888;2022-08-24T15:33:17;34.70;57.60
37642;DHT22;23486;51.956;5.888;2022-08-24T15:35:46;34.70;57.00
37642;DHT22;23486;51.956;5.888;2022-08-24T15:40:50;34.60;56.70
37642;DHT22;23486;51.956;5.888;2022-08-24T15:43:17;34.40;56.60
37642;DHT22;23486;51.956;5.888;2022-08-24T15:45:49;34.10;56.60
37642;DHT22;23486;51.956;5.888;2022-08-24T15:48:18;33.90;56.70
37642;DHT22;23486;51.956;5.888;2022-08-24T15:50:46;33.70;56.60
37642;DHT22;23486;51.956;5.888;2022-08-24T15:58:46;33.00;57.10
37642;DHT22;23486;51.956;5.888;2022-08-24T16:04:07;32.60;57.40
37642;DHT22;23486;51.956;5.888;2022-08-24T16:12:20;32.30;58.40
37642;DHT22;23486;51.956;5.888;2022-08-24T16:14:27;32.30;58.70
37642;DHT22;23486;51.956;5.888;2022-08-24T16:16:54;32.20;58.30
37642;DHT22;23486;51.956;5.888;2022-08-24T16:19:28;32.10;57.90
37642;DHT22;23486;51.956;5.888;2022-08-24T16:22:07;31.90;58.10
37642;DHT22;23486;51.956;5.888;2022-08-24T16:24:38;31.80;58.60
37642;DHT22;23486;51.956;5.888;2022-08-24T16:27:15;31.80;58.80
37642;DHT22;23486;51.956;5.888;2022-08-24T16:29:43;31.70;58.90
37642;DHT22;23486;51.956;5.888;2022-08-24T16:34:35;31.70;59.40
37642;DHT22;23486;51.956;5.888;2022-08-24T16:37:03;31.60;59.00
37642;DHT22;23486;51.956;5.888;2022-08-24T16:39:29;31.60;59.00
37642;DHT22;23486;51.956;5.888;2022-08-24T16:42:01;31.50;58.80
37642;DHT22;23486;51.956;5.888;2022-08-24T16:44:32;31.50;58.90
37642;DHT22;23486;51.956;5.888;2022-08-24T16:46:58;31.40;58.70
37642;DHT22;23486;51.956;5.888;2022-08-24T16:49:25;31.40;58.80
37642;DHT22;23486;51.956;5.888;2022-08-24T16:51:50;31.40;59.10
37642;DHT22;23486;51.956;5.888;2022-08-24T16:54:16;31.40;59.40
37642;DHT22;23486;51.956;5.888;2022-08-24T16:56:44;31.40;59.60
37642;DHT22;23486;51.956;5.888;2022-08-24T16:59:16;31.40;59.80
37642;DHT22;23486;51.956;5.888;2022-08-24T17:01:42;31.40;59.60
37642;DHT22;23486;51.956;5.888;2022-08-24T17:04:08;31.40;59.70
37642;DHT22;23486;51.956;5.888;2022-08-24T17:06:34;31.30;59.80
37642;DHT22;23486;51.956;5.888;2022-08-24T17:09:00;31.20;59.80
37642;DHT22;23486;51.956;5.888;2022-08-24T17:11:26;31.20;59.80
37642;DHT22;23486;51.956;5.888;2022-08-24T17:13:52;31.20;59.70
37642;DHT22;23486;51.956;5.888;2022-08-24T17:16:19;31.10;59.90
37642;DHT22;23486;51.956;5.888;2022-08-24T17:18:45;31.10;60.20
37642;DHT22;23486;51.956;5.888;2022-08-24T17:21:11;31.10;60.30
37642;DHT22;23486;51.956;5.888;2022-08-24T17:23:37;31.00;60.40
37642;DHT22;23486;51.956;5.888;2022-08-24T17:26:10;31.00;60.20
37642;DHT22;23486;51.956;5.888;2022-08-24T17:28:39;30.90;60.10
37642;DHT22;23486;51.956;5.888;2022-08-24T17:31:06;30.80;59.90
37642;DHT22;23486;51.956;5.888;2022-08-24T17:33:32;30.80;59.90
37642;DHT22;23486;51.956;5.888;2022-08-24T17:35:59;30.60;59.80
37642;DHT22;23486;51.956;5.888;2022-08-24T17:38:29;30.60;60.10
37642;DHT22;23486;51.956;5.888;2022-08-24T17:40:56;30.50;60.40
37642;DHT22;23486;51.956;5.888;2022-08-24T17:43:22;30.40;60.50
37642;DHT22;23486;51.956;5.888;2022-08-24T17:45:49;30.30;60.70
37642;DHT22;23486;51.956;5.888;2022-08-24T17:48:21;30.20;60.90
37642;DHT22;23486;51.956;5.888;2022-08-24T17:50:48;30.20;61.10
37642;DHT22;23486;51.956;5.888;2022-08-24T17:53:13;30.10;61.40
37642;DHT22;23486;51.956;5.888;2022-08-24T17:55:39;30.10;61.40
37642;DHT22;23486;51.956;5.888;2022-08-24T17:58:05;30.00;61.30
37642;DHT22;23486;51.956;5.888;2022-08-24T18:00:30;30.00;61.30
37642;DHT22;23486;51.956;5.888;2022-08-24T18:02:56;29.90;61.40
37642;DHT22;23486;51.956;5.888;2022-08-24T18:05:22;29.80;61.50
37642;DHT22;23486;51.956;5.888;2022-08-24T18:07:53;29.80;61.80
37642;DHT22;23486;51.956;5.888;2022-08-24T18:10:25;29.70;62.10
37642;DHT22;23486;51.956;5.888;2022-08-24T18:12:55;29.60;62.50
37642;DHT22;23486;51.956;5.888;2022-08-24T18:15:22;29.50;62.80
37642;DHT22;23486;51.956;5.888;2022-08-24T18:17:50;29.40;63.10
37642;DHT22;23486;51.956;5.888;2022-08-24T18:20:21;29.30;63.40
37642;DHT22;23486;51.956;5.888;2022-08-24T18:22:49;29.10;63.70
37642;DHT22;23486;51.956;5.888;2022-08-24T18:25:16;29.10;64.30
37642;DHT22;23486;51.956;5.888;2022-08-24T18:27:44;29.00;64.60
37642;DHT22;23486;51.956;5.888;2022-08-24T18:30:22;28.90;65.10
37642;DHT22;23486;51.956;5.888;2022-08-24T18:32:47;28.80;65.40
37642;DHT22;23486;51.956;5.888;2022-08-24T18:35:13;28.70;65.70
37642;DHT22;23486;51.956;5.888;2022-08-24T18:37:39;28.60;65.80
37642;DHT22;23486;51.956;5.888;2022-08-24T18:40:05;28.60;66.00
37642;DHT22;23486;51.956;5.888;2022-08-24T18:42:31;28.50;66.30
37642;DHT22;23486;51.956;5.888;2022-08-24T18:44:57;28.50;66.60
37642;DHT22;23486;51.956;5.888;2022-08-24T18:47:25;28.40;67.00
37642;DHT22;23486;51.956;5.888;2022-08-24T18:49:51;28.30;67.40
37642;DHT22;23486;51.956;5.888;2022-08-24T18:52:16;28.20;67.80
37642;DHT22;23486;51.956;5.888;2022-08-24T18:54:45;28.10;68.10
37642;DHT22;23486;51.956;5.888;2022-08-24T18:57:12;28.10;68.40
37642;DHT22;23486;51.956;5.888;2022-08-24T18:59:41;28.00;68.70
37642;DHT22;23486;51.956;5.888;2022-08-24T19:02:15;27.90;69.00
37642;DHT22;23486;51.956;5.888;2022-08-24T19:07:32;27.70;69.60
37642;DHT22;23486;51.956;5.888;2022-08-24T19:09:59;27.60;70.00
37642;DHT22;23486;51.956;5.888;2022-08-24T19:12:26;27.50;70.30
37642;DHT22;23486;51.956;5.888;2022-08-24T19:14:55;27.50;70.70
37642;DHT22;23486;51.956;5.888;2022-08-24T19:17:21;27.40;71.70
37642;DHT22;23486;51.956;5.888;2022-08-24T19:19:47;27.40;72.10
37642;DHT22;23486;51.956;5.888;2022-08-24T19:22:14;27.30;72.70
37642;DHT22;23486;51.956;5.888;2022-08-24T19:24:40;27.30;73.30
37642;DHT22;23486;51.956;5.888;2022-08-24T19:27:06;27.20;73.90
37642;DHT22;23486;51.956;5.888;2022-08-24T19:29:32;27.20;74.50
37642;DHT22;23486;51.956;5.888;2022-08-24T19:31:58;27.20;74.70
37642;DHT22;23486;51.956;5.888;2022-08-24T19:34:23;27.10;75.20
37642;DHT22;23486;51.956;5.888;2022-08-24T19:36:49;27.10;75.60
37642;DHT22;23486;51.956;5.888;2022-08-24T19:39:15;27.00;76.00
37642;DHT22;23486;51.956;5.888;2022-08-24T19:41:43;26.90;76.40
37642;DHT22;23486;51.956;5.888;2022-08-24T19:44:10;26.80;77.00
37642;DHT22;23486;51.956;5.888;2022-08-24T19:46:54;26.80;77.30
37642;DHT22;23486;51.956;5.888;2022-08-24T19:49:21;26.70;77.60
37642;DHT22;23486;51.956;5.888;2022-08-24T19:51:47;26.60;78.20
37642;DHT22;23486;51.956;5.888;2022-08-24T19:54:13;26.60;78.70
37642;DHT22;23486;51.956;5.888;2022-08-24T19:56:38;26.60;78.90
37642;DHT22;23486;51.956;5.888;2022-08-24T19:59:25;26.50;79.50
37642;DHT22;23486;51.956;5.888;2022-08-24T20:01:51;26.50;79.90
37642;DHT22;23486;51.956;5.888;2022-08-24T20:04:17;26.50;80.00
37642;DHT22;23486;51.956;5.888;2022-08-24T20:06:43;26.50;80.50
37642;DHT22;23486;51.956;5.888;2022-08-24T20:09:08;26.40;80.60
37642;DHT22;23486;51.956;5.888;2022-08-24T20:11:35;26.40;81.10
37642;DHT22;23486;51.956;5.888;2022-08-24T20:14:01;26.30;81.50
37642;DHT22;23486;51.956;5.888;2022-08-24T20:16:31;26.30;82.10
37642;DHT22;23486;51.956;5.888;2022-08-24T20:18:59;26.20;82.90
37642;DHT22;23486;51.956;5.888;2022-08-24T20:21:25;26.20;83.40
37642;DHT22;23486;51.956;5.888;2022-08-24T20:23:54;26.20;83.60
37642;DHT22;23486;51.956;5.888;2022-08-24T20:26:20;26.20;84.30
37642;DHT22;23486;51.956;5.888;2022-08-24T20:28:50;26.20;84.50
37642;DHT22;23486;51.956;5.888;2022-08-24T20:31:17;26.10;85.10
37642;DHT22;23486;51.956;5.888;2022-08-24T20:33:43;26.10;84.80
37642;DHT22;23486;51.956;5.888;2022-08-24T20:38:57;26.00;85.40
37642;DHT22;23486;51.956;5.888;2022-08-24T20:41:24;26.00;85.40
37642;DHT22;23486;51.956;5.888;2022-08-24T20:43:52;25.90;86.20
37642;DHT22;23486;51.956;5.888;2022-08-24T20:46:17;25.90;85.90
37642;DHT22;23486;51.956;5.888;2022-08-24T20:48:44;25.90;86.30
37642;DHT22;23486;51.956;5.888;2022-08-24T20:51:10;25.80;86.70
37642;DHT22;23486;51.956;5.888;2022-08-24T20:53:36;25.80;86.90
37642;DHT22;23486;51.956;5.888;2022-08-24T20:56:07;25.80;87.00
37642;DHT22;23486;51.956;5.888;2022-08-24T20:58:34;25.70;87.40
37642;DHT22;23486;51.956;5.888;2022-08-24T21:01:01;25.70;87.50
37642;DHT22;23486;51.956;5.888;2022-08-24T21:03:26;25.60;87.60
37642;DHT22;23486;51.956;5.888;2022-08-24T21:05:52;25.60;87.90
37642;DHT22;23486;51.956;5.888;2022-08-24T21:08:18;25.60;88.00
37642;DHT22;23486;51.956;5.888;2022-08-24T21:10:44;25.60;88.10
37642;DHT22;23486;51.956;5.888;2022-08-24T21:13:09;25.60;88.20
37642;DHT22;23486;51.956;5.888;2022-08-24T21:15:38;25.60;88.20
37642;DHT22;23486;51.956;5.888;2022-08-24T21:18:05;25.50;88.40
37642;DHT22;23486;51.956;5.888;2022-08-24T21:20:32;25.50;88.40
37642;DHT22;23486;51.956;5.888;2022-08-24T21:22:57;25.50;88.50
37642;DHT22;23486;51.956;5.888;2022-08-24T21:25:23;25.50;88.70
37642;DHT22;23486;51.956;5.888;2022-08-24T21:27:49;25.50;88.60
37642;DHT22;23486;51.956;5.888;2022-08-24T21:30:18;25.50;88.60
37642;DHT22;23486;51.956;5.888;2022-08-24T21:32:43;25.50;88.70
37642;DHT22;23486;51.956;5.888;2022-08-24T21:35:28;25.50;88.60
37642;DHT22;23486;51.956;5.888;2022-08-24T21:37:53;25.40;88.80
37642;DHT22;23486;51.956;5.888;2022-08-24T21:40:19;25.40;88.80
37642;DHT22;23486;51.956;5.888;2022-08-24T21:42:46;25.40;89.30
37642;DHT22;23486;51.956;5.888;2022-08-24T21:45:11;25.40;88.80
37642;DHT22;23486;51.956;5.888;2022-08-24T21:47:37;25.40;88.70
37642;DHT22;23486;51.956;5.888;2022-08-24T21:50:04;25.40;88.70
37642;DHT22;23486;51.956;5.888;2022-08-24T21:52:30;25.40;88.80
37642;DHT22;23486;51.956;5.888;2022-08-24T21:54:55;25.30;88.80
37642;DHT22;23486;51.956;5.888;2022-08-24T21:57:21;25.30;88.90
37642;DHT22;23486;51.956;5.888;2022-08-24T21:59:47;25.30;88.90
37642;DHT22;23486;51.956;5.888;2022-08-24T22:02:12;25.30;89.00
37642;DHT22;23486;51.956;5.888;2022-08-24T22:04:38;25.20;89.00
37642;DHT22;23486;51.956;5.888;2022-08-24T22:07:04;25.20;89.00
37642;DHT22;23486;51.956;5.888;2022-08-24T22:09:30;25.20;89.00
37642;DHT22;23486;51.956;5.888;2022-08-24T22:11:55;25.10;89.10
37642;DHT22;23486;51.956;5.888;2022-08-24T22:14:23;25.10;89.30
37642;DHT22;23486;51.956;5.888;2022-08-24T22:16:50;25.00;89.50
37642;DHT22;23486;51.956;5.888;2022-08-24T22:19:16;25.00;89.60
37642;DHT22;23486;51.956;5.888;2022-08-24T22:21:43;25.00;89.80
37642;DHT22;23486;51.956;5.888;2022-08-24T22:24:09;24.90;90.00
37642;DHT22;23486;51.956;5.888;2022-08-24T22:26:35;24.90;90.00
37642;DHT22;23486;51.956;5.888;2022-08-24T22:29:02;24.90;90.10
37642;DHT22;23486;51.956;5.888;2022-08-24T22:31:32;24.80;90.10
37642;DHT22;23486;51.956;5.888;2022-08-24T22:34:00;24.80;90.20
37642;DHT22;23486;51.956;5.888;2022-08-24T22:36:27;24.70;90.30
37642;DHT22;23486;51.956;5.888;2022-08-24T22:38:54;24.70;90.30
37642;DHT22;23486;51.956;5.888;2022-08-24T22:41:20;24.70;90.60
37642;DHT22;23486;51.956;5.888;2022-08-24T22:43:47;24.60;90.40
37642;DHT22;23486;51.956;5.888;2022-08-24T22:46:32;24.60;90.40